Time;durP1;ratioP1;P1;durP2;ratioP2;P2;SDS_P1;SDS_P2;PMS_P1;PMS_P2;Temp;Humidity;BMP_temperature;BMP_pressure;BME280_temperature;BME280_humidity;BME280_pressure;Samples;Min_cycle;Max_cycle;Signal;HPM_P1;HPM_P2
2021/10/30 00:01:11;;;;;;;;;;;;;;;;;;5133504;28;19923;-67
2021/10/30 00:03:37;;;;;;;;;;;;;;;;;;5133070;27;20289;-67
2021/10/30 00:06:03;;;;;;;;;;;;;;;;;;5133199;28;19924;-67
2021/10/30 00:08:29;;;;;;;;;;;;;;;;;;5133156;28;19924;-67
2021/10/30 00:10:56;;;;;;;;;;;;;;;;;;5133281;28;20285;-67
2021/10/30 00:13:22;;;;;;;;;;;;;;;;;;5133125;28;19924;-67
2021/10/30 00:15:48;;;;;;;;;;;;;;;;;;5133114;28;19946;-67
2021/10/30 00:18:15;;;;;;;;;;;;;;;;;;5133315;28;19946;-67
2021/10/30 00:20:41;;;;;;;;;;;;;;;;;;5132633;28;19931;-67
2021/10/30 00:23:07;;;;;;;;;;;;;;;;;;5133271;28;19924;-67
2021/10/30 00:25:34;;;;;;;;;;;;;;;;;;5133041;28;19927;-67
2021/10/30 00:28:00;;;;;;;;;;;;;;;;;;5132954;28;19930;-67
2021/10/30 00:30:26;;;;;;;;;;;;;;;;;;5132950;28;19931;-67
2021/10/30 00:32:52;;;;;;;;;;;;;;;;;;5133003;28;19924;-67
2021/10/30 00:35:19;;;;;;;;;;;;;;;;;;5132879;28;19928;-67
2021/10/30 00:37:45;;;;;;;;;;;;;;;;;;5132925;28;19938;-67
2021/10/30 00:40:12;;;;;;;;;;;;;;;;;;5132877;27;20285;-67
2021/10/30 00:42:38;;;;;;;;;;;;;;;;;;5135904;27;20046;-67
2021/10/30 00:45:04;;;;;;;;;;;;;;;;;;5136574;27;20361;-67
2021/10/30 00:47:31;;;;;;;;;;;;;;;;;;5136219;27;19930;-67
2021/10/30 00:49:57;;;;;;;;;;;;;;;;;;5136573;27;19931;-67
2021/10/30 00:52:23;;;;;;;;;;;;;;;;;;5136376;27;20377;-67
2021/10/30 00:54:49;;;;;;;;;;;;;;;;;;5135960;27;19928;-67
2021/10/30 00:57:16;;;;;;;;;;;;;;;;;;5136511;27;19930;-67
2021/10/30 00:59:42;;;;;;;;;;;;;;;;;;5136151;27;20416;-67
2021/10/30 01:02:08;;;;;;;;;;;;;;;;;;5136362;27;19924;-67
2021/10/30 01:04:35;;;;;;;;;;;;;;;;;;5136244;27;19924;-67
2021/10/30 01:07:01;;;;;;;;;;;;;;;;;;5136572;27;19968;-67
2021/10/30 01:09:27;;;;;;;;;;;;;;;;;;5136259;27;19927;-67
2021/10/30 01:11:54;;;;;;;;;;;;;;;;;;5136142;27;19924;-67
2021/10/30 01:14:20;;;;;;;;;;;;;;;;;;5136147;27;19927;-67
2021/10/30 01:16:46;;;;;;;;;;;;;;;;;;5135959;27;20322;-67
2021/10/30 01:19:13;;;;;;;;;;;;;;;;;;5135769;27;19924;-67
2021/10/30 01:21:39;;;;;;;;;;;;;;;;;;5135558;27;19924;-67
2021/10/30 01:24:05;;;;;;;;;;;;;;;;;;5135822;27;20400;-67
2021/10/30 01:26:32;;;;;;;;;;;;;;;;;;5135408;27;19931;-67
2021/10/30 01:28:59;;;;;;;;;;;;;;;;;;5135886;27;19931;-67
2021/10/30 01:31:26;;;;;;;;;;;;;;;;;;5135333;27;20434;-67
2021/10/30 01:33:52;;;;;;;;;;;;;;;;;;5135491;27;19931;-67
2021/10/30 01:36:18;;;;;;;;;;;;;;;;;;5135780;27;19931;-68
2021/10/30 01:38:45;;;;;;;;;;;;;;;;;;5135271;27;20378;-68
2021/10/30 01:41:11;;;;;;;;;;;;;;;;;;5135512;27;19930;-67
2021/10/30 01:43:38;;;;;;;;;;;;;;;;;;5135416;27;19924;-67
2021/10/30 01:46:04;;;;;;;;;;;;;;;;;;5135340;27;19928;-68
2021/10/30 01:48:31;;;;;;;;;;;;;;;;;;5135451;27;19923;-68
2021/10/30 01:50:57;;;;;;;;;;;;;;;;;;5135158;27;20370;-68
2021/10/30 01:53:23;;;;;;;;;;;;;;;;;;5135133;27;19929;-68
2021/10/30 01:55:50;;;;;;;;;;;;;;;;;;5135105;27;19976;-68
2021/10/30 01:58:16;;;;;;;;;;;;;;;;;;5135515;27;19930;-68
2021/10/30 02:00:42;;;;;;;;;;;;;;;;;;5134724;27;19923;-68
2021/10/30 02:03:09;;;;;;;;;;;;;;;;;;5135341;27;19923;-68
2021/10/30 02:05:35;;;;;;;;;;;;;;;;;;5134736;27;20385;-67
2021/10/30 02:08:01;;;;;;;;;;;;;;;;;;5135377;27;19996;-68
2021/10/30 02:10:28;;;;;;;;;;;;;;;;;;5134702;27;19930;-68
2021/10/30 02:12:54;;;;;;;;;;;;;;;;;;5135082;27;19930;-68
2021/10/30 02:15:20;;;;;;;;;;;;;;;;;;5134793;27;20297;-67
2021/10/30 02:17:46;;;;;;;;;;;;;;;;;;5134489;27;19924;-67
2021/10/30 02:20:13;;;;;;;;;;;;;;;;;;5134744;27;19928;-68
2021/10/30 02:22:39;;;;;;;;;;;;;;;;;;5134253;27;20312;-67
2021/10/30 02:25:06;;;;;;;;;;;;;;;;;;5134599;27;19923;-68
2021/10/30 02:27:32;;;;;;;;;;;;;;;;;;5134665;27;19923;-68
2021/10/30 02:29:58;;;;;;;;;;;;;;;;;;5134336;27;19931;-67
2021/10/30 02:32:24;;;;;;;;;;;;;;;;;;5134814;27;19924;-68
2021/10/30 02:34:51;;;;;;;;;;;;;;;;;;5134742;27;20025;-68
2021/10/30 02:37:17;;;;;;;;;;;;;;;;;;5134661;27;19969;-68
2021/10/30 02:39:43;;;;;;;;;;;;;;;;;;5133924;27;19923;-68
2021/10/30 02:42:10;;;;;;;;;;;;;;;;;;5134654;27;19930;-67
2021/10/30 02:44:36;;;;;;;;;;;;;;;;;;5133921;27;20285;-67
2021/10/30 02:47:02;;;;;;;;;;;;;;;;;;5134066;27;19924;-67
2021/10/30 02:49:29;;;;;;;;;;;;;;;;;;5134082;27;19923;-67
2021/10/30 02:51:55;;;;;;;;;;;;;;;;;;5134336;27;20010;-68
2021/10/30 02:54:21;;;;;;;;;;;;;;;;;;5134007;27;19927;-67
2021/10/30 02:56:48;;;;;;;;;;;;;;;;;;5134162;27;19923;-68
2021/10/30 02:59:14;;;;;;;;;;;;;;;;;;5134209;27;19923;-68
2021/10/30 03:01:41;;;;;;;;;;;;;;;;;;5133641;27;19934;-67
2021/10/30 03:04:07;;;;;;;;;;;;;;;;;;5133426;27;19923;-67
2021/10/30 03:06:33;;;;;;;;;;;;;;;;;;5134133;27;19923;-68
2021/10/30 03:09:00;;;;;;;;;;;;;;;;;;5134039;27;19924;-67
2021/10/30 03:11:26;;;;;;;;;;;;;;;;;;5133759;27;19924;-68
2021/10/30 03:13:52;;;;;;;;;;;;;;;;;;5133785;27;19923;-68
2021/10/30 03:16:19;;;;;;;;;;;;;;;;;;5133598;27;19923;-68
2021/10/30 03:18:45;;;;;;;;;;;;;;;;;;5133569;27;19923;-68
2021/10/30 03:21:11;;;;;;;;;;;;;;;;;;5133523;27;20400;-68
2021/10/30 03:23:39;;;;;;;;;;;;;;;;;;5132977;27;20208;-68
2021/10/30 03:26:06;;;;;;;;;;;;;;;;;;5133599;27;20382;-67
2021/10/30 03:28:32;;;;;;;;;;;;;;;;;;5133432;27;19923;-67
2021/10/30 03:30:58;;;;;;;;;;;;;;;;;;5133592;27;19923;-68
2021/10/30 03:33:25;;;;;;;;;;;;;;;;;;5133536;27;19923;-68
2021/10/30 03:35:51;;;;;;;;;;;;;;;;;;5133452;27;19927;-68
2021/10/30 03:38:17;;;;;;;;;;;;;;;;;;5133792;28;19923;-68
2021/10/30 03:40:44;;;;;;;;;;;;;;;;;;5133110;28;19923;-68
2021/10/30 03:43:10;;;;;;;;;;;;;;;;;;5133249;28;20281;-67
2021/10/30 03:45:36;;;;;;;;;;;;;;;;;;5133411;27;20281;-67
2021/10/30 03:48:03;;;;;;;;;;;;;;;;;;5133340;28;19930;-67
2021/10/30 03:50:29;;;;;;;;;;;;;;;;;;5133244;28;19935;-67
2021/10/30 03:52:55;;;;;;;;;;;;;;;;;;5133235;28;20400;-67
2021/10/30 03:55:21;;;;;;;;;;;;;;;;;;5133171;28;19935;-68
2021/10/30 03:57:48;;;;;;;;;;;;;;;;;;5133295;28;19923;-67
2021/10/30 04:00:14;;;;;;;;;;;;;;;;;;5133278;27;19924;-68
2021/10/30 04:02:40;;;;;;;;;;;;;;;;;;5133082;28;19930;-67
2021/10/30 04:05:07;;;;;;;;;;;;;;;;;;5133437;28;19923;-67
2021/10/30 04:07:33;;;;;;;;;;;;;;;;;;5132902;28;19924;-67
2021/10/30 04:09:59;;;;;;;;;;;;;;;;;;5133452;28;19923;-67
2021/10/30 04:12:25;;;;;;;;;;;;;;;;;;5132800;28;20365;-68
2021/10/30 04:14:52;;;;;;;;;;;;;;;;;;5133640;27;19934;-67
2021/10/30 04:17:18;;;;;;;;;;;;;;;;;;5137618;27;19931;-68
2021/10/30 04:19:44;;;;;;;;;;;;;;;;;;5136788;27;19927;-67
2021/10/30 04:22:11;;;;;;;;;;;;;;;;;;5136938;27;20377;-67
2021/10/30 04:24:37;;;;;;;;;;;;;;;;;;5136928;27;19924;-67
2021/10/30 04:27:03;;;;;;;;;;;;;;;;;;5137162;27;19946;-67
2021/10/30 04:29:30;;;;;;;;;;;;;;;;;;5136664;27;19931;-67
2021/10/30 04:31:58;;;;;;;;;;;;;;;;;;5137077;27;19930;-67
2021/10/30 04:34:34;;;;;;;;;;;;;;;;;;5137100;27;19928;-67
2021/10/30 04:37:02;;;;;;;;;;;;;;;;;;5136999;27;20014;-67
2021/10/30 04:39:28;;;;;;;;;;;;;;;;;;5136680;27;20278;-67
2021/10/30 04:41:55;;;;;;;;;;;;;;;;;;5136619;27;19923;-67
2021/10/30 04:44:21;;;;;;;;;;;;;;;;;;5136806;27;19923;-67
2021/10/30 04:46:47;;;;;;;;;;;;;;;;;;5136298;27;19931;-67
2021/10/30 04:49:13;;;;;;;;;;;;;;;;;;5136789;27;19923;-67
2021/10/30 04:51:40;;;;;;;;;;;;;;;;;;5135955;27;20404;-67
2021/10/30 04:54:06;;;;;;;;;;;;;;;;;;5136399;27;19930;-67
2021/10/30 04:56:32;;;;;;;;;;;;;;;;;;5136438;27;19937;-67
2021/10/30 04:58:59;;;;;;;;;;;;;;;;;;5136236;27;20396;-67
2021/10/30 05:01:25;;;;;;;;;;;;;;;;;;5136068;27;20004;-67
2021/10/30 05:03:52;;;;;;;;;;;;;;;;;;5136540;27;19941;-68
2021/10/30 05:06:18;;;;;;;;;;;;;;;;;;5136108;27;20386;-67
2021/10/30 05:08:44;;;;;;;;;;;;;;;;;;5135844;27;19923;-68
2021/10/30 05:11:10;;;;;;;;;;;;;;;;;;5136203;27;19923;-67
2021/10/30 05:13:37;;;;;;;;;;;;;;;;;;5135780;27;19923;-67
2021/10/30 05:16:03;;;;;;;;;;;;;;;;;;5136385;27;19923;-67
2021/10/30 05:18:30;;;;;;;;;;;;;;;;;;5135905;27;19924;-68
2021/10/30 05:20:56;;;;;;;;;;;;;;;;;;5135621;27;19923;-68
2021/10/30 05:23:22;;;;;;;;;;;;;;;;;;5136157;27;19934;-68
2021/10/30 05:25:49;;;;;;;;;;;;;;;;;;5135503;27;20018;-68
2021/10/30 05:28:20;;;;;;;;;;;;;;;;;;5135380;27;19930;-68
2021/10/30 05:30:47;;;;;;;;;;;;;;;;;;5135430;27;20393;-68
2021/10/30 05:33:13;;;;;;;;;;;;;;;;;;5135866;27;19923;-67
2021/10/30 05:35:39;;;;;;;;;;;;;;;;;;5135417;27;20298;-67
2021/10/30 05:38:06;;;;;;;;;;;;;;;;;;5135572;27;19923;-68
2021/10/30 05:40:32;;;;;;;;;;;;;;;;;;5135243;27;19934;-68
2021/10/30 05:42:58;;;;;;;;;;;;;;;;;;5135687;27;19923;-67
2021/10/30 05:45:24;;;;;;;;;;;;;;;;;;5135411;27;20373;-68
2021/10/30 05:47:51;;;;;;;;;;;;;;;;;;5135367;27;19924;-68
2021/10/30 05:50:17;;;;;;;;;;;;;;;;;;5135537;27;19944;-68
2021/10/30 05:52:43;;;;;;;;;;;;;;;;;;5134928;27;20361;-68
2021/10/30 05:55:10;;;;;;;;;;;;;;;;;;5135551;27;19930;-67
2021/10/30 05:57:36;;;;;;;;;;;;;;;;;;5135393;27;20278;-67
2021/10/30 06:00:03;;;;;;;;;;;;;;;;;;5135137;27;19927;-67
2021/10/30 06:02:29;;;;;;;;;;;;;;;;;;5135295;27;19923;-67
2021/10/30 06:04:55;;;;;;;;;;;;;;;;;;5134851;27;20302;-67
2021/10/30 06:07:22;;;;;;;;;;;;;;;;;;5135264;27;19929;-67
2021/10/30 06:09:49;;;;;;;;;;;;;;;;;;5134955;27;19930;-67
2021/10/30 06:12:15;;;;;;;;;;;;;;;;;;5134747;27;20369;-67
2021/10/30 06:14:41;;;;;;;;;;;;;;;;;;5134514;27;19930;-67
2021/10/30 06:17:08;;;;;;;;;;;;;;;;;;5134988;27;19923;-67
2021/10/30 06:19:34;;;;;;;;;;;;;;;;;;5134893;27;19927;-68
2021/10/30 06:22:00;;;;;;;;;;;;;;;;;;5134533;27;20370;-68
2021/10/30 06:24:27;;;;;;;;;;;;;;;;;;5134510;27;19923;-68
2021/10/30 06:26:53;;;;;;;;;;;;;;;;;;5134951;27;20026;-67
2021/10/30 06:29:20;;;;;;;;;;;;;;;;;;5134481;27;20293;-67
2021/10/30 06:31:46;;;;;;;;;;;;;;;;;;5134072;27;19927;-68
2021/10/30 06:34:12;;;;;;;;;;;;;;;;;;5134622;27;20029;-68
2021/10/30 06:36:39;;;;;;;;;;;;;;;;;;5134119;27;20297;-67
2021/10/30 06:39:05;;;;;;;;;;;;;;;;;;5133226;27;19930;-67
2021/10/30 06:41:33;;;;;;;;;;;;;;;;;;5134592;27;19924;-67
2021/10/30 06:43:59;;;;;;;;;;;;;;;;;;5134515;27;20002;-67
2021/10/30 06:46:25;;;;;;;;;;;;;;;;;;5134044;27;19996;-67
2021/10/30 06:48:55;;;;;;;;;;;;;;;;;;5134160;27;19928;-67
2021/10/30 06:51:22;;;;;;;;;;;;;;;;;;5134069;27;19932;-68
2021/10/30 06:53:48;;;;;;;;;;;;;;;;;;5134082;27;19923;-68
2021/10/30 06:56:14;;;;;;;;;;;;;;;;;;5133983;27;20416;-67
2021/10/30 06:58:41;;;;;;;;;;;;;;;;;;5134080;27;19924;-68
2021/10/30 07:01:07;;;;;;;;;;;;;;;;;;5134153;27;19935;-67
2021/10/30 07:03:33;;;;;;;;;;;;;;;;;;5133628;27;19980;-68
2021/10/30 07:06:00;;;;;;;;;;;;;;;;;;5133767;27;20292;-68
2021/10/30 07:08:26;;;;;;;;;;;;;;;;;;5133710;27;19930;-68
2021/10/30 07:10:52;;;;;;;;;;;;;;;;;;5133857;27;20336;-68
2021/10/30 07:13:19;;;;;;;;;;;;;;;;;;5133510;27;19938;-67
2021/10/30 07:15:46;;;;;;;;;;;;;;;;;;5133822;27;19927;-67
2021/10/30 07:18:13;;;;;;;;;;;;;;;;;;5134001;27;19946;-67
2021/10/30 07:20:39;;;;;;;;;;;;;;;;;;5133269;27;19923;-67
2021/10/30 07:23:05;;;;;;;;;;;;;;;;;;5133887;27;19988;-67
2021/10/30 07:25:32;;;;;;;;;;;;;;;;;;5133609;27;19923;-67
2021/10/30 07:27:58;;;;;;;;;;;;;;;;;;5133885;27;20019;-67
2021/10/30 07:30:24;;;;;;;;;;;;;;;;;;5133554;27;20433;-67
2021/10/30 07:32:52;;;;;;;;;;;;;;;;;;5133427;27;19923;-67
2021/10/30 07:35:18;;;;;;;;;;;;;;;;;;5133836;27;19957;-66
2021/10/30 07:37:45;;;;;;;;;;;;;;;;;;5132992;27;19924;-67
2021/10/30 07:40:11;;;;;;;;;;;;;;;;;;5133746;27;19923;-67
2021/10/30 07:42:37;;;;;;;;;;;;;;;;;;5133113;28;19923;-67
2021/10/30 07:45:03;;;;;;;;;;;;;;;;;;5133659;28;19924;-67
2021/10/30 07:47:30;;;;;;;;;;;;;;;;;;5132989;28;20366;-67
2021/10/30 07:49:56;;;;;;;;;;;;;;;;;;5134092;27;19923;-67
2021/10/30 07:52:22;;;;;;;;;;;;;;;;;;5137858;27;20062;-67
2021/10/30 07:54:49;;;;;;;;;;;;;;;;;;5137249;27;19923;-67
2021/10/30 07:57:15;;;;;;;;;;;;;;;;;;5137781;27;19923;-66
2021/10/30 07:59:41;;;;;;;;;;;;;;;;;;5137238;27;20362;-67
2021/10/30 08:02:08;;;;;;;;;;;;;;;;;;5137625;27;19924;-67
2021/10/30 08:04:34;;;;;;;;;;;;;;;;;;5137329;27;20270;-67
2021/10/30 08:07:00;;;;;;;;;;;;;;;;;;5137286;27;19938;-67
2021/10/30 08:09:26;;;;;;;;;;;;;;;;;;5137318;27;19930;-67
2021/10/30 08:11:53;;;;;;;;;;;;;;;;;;5137109;27;20289;-67
2021/10/30 08:14:19;;;;;;;;;;;;;;;;;;5137376;27;19931;-66
2021/10/30 08:16:45;;;;;;;;;;;;;;;;;;5137325;27;20289;-67
2021/10/30 08:19:12;;;;;;;;;;;;;;;;;;5137407;27;19923;-66
2021/10/30 08:21:38;;;;;;;;;;;;;;;;;;5136804;27;19923;-66
2021/10/30 08:24:04;;;;;;;;;;;;;;;;;;5137042;27;19934;-67
2021/10/30 08:26:31;;;;;;;;;;;;;;;;;;5137112;27;19923;-66
2021/10/30 08:28:57;;;;;;;;;;;;;;;;;;5137226;27;20010;-67
2021/10/30 08:31:23;;;;;;;;;;;;;;;;;;5137215;27;19931;-67
2021/10/30 08:33:51;;;;;;;;;;;;;;;;;;5137004;27;19990;-67
2021/10/30 08:36:17;;;;;;;;;;;;;;;;;;5136919;27;19927;-67
2021/10/30 08:38:44;;;;;;;;;;;;;;;;;;5136428;27;19923;-67
2021/10/30 08:41:10;;;;;;;;;;;;;;;;;;5137044;27;19930;-67
2021/10/30 08:43:36;;;;;;;;;;;;;;;;;;5136482;27;20561;-67
2021/10/30 08:46:02;;;;;;;;;;;;;;;;;;5136586;27;19930;-67
2021/10/30 08:48:29;;;;;;;;;;;;;;;;;;5136605;27;19930;-67
2021/10/30 08:50:55;;;;;;;;;;;;;;;;;;5136766;27;19979;-67
2021/10/30 08:53:22;;;;;;;;;;;;;;;;;;5136354;27;19931;-67
2021/10/30 08:55:48;;;;;;;;;;;;;;;;;;5136401;27;19924;-67
2021/10/30 08:58:14;;;;;;;;;;;;;;;;;;5136279;27;20497;-67
2021/10/30 09:00:41;;;;;;;;;;;;;;;;;;5136319;27;19938;-67
2021/10/30 09:03:08;;;;;;;;;;;;;;;;;;5134998;27;20289;-67
2021/10/30 09:05:34;;;;;;;;;;;;;;;;;;5135996;27;20378;-67
2021/10/30 09:08:00;;;;;;;;;;;;;;;;;;5136083;27;19923;-67
2021/10/30 09:10:27;;;;;;;;;;;;;;;;;;5136134;27;19946;-67
2021/10/30 09:12:53;;;;;;;;;;;;;;;;;;5135969;27;19930;-67
2021/10/30 09:15:20;;;;;;;;;;;;;;;;;;5135977;27;19923;-67
2021/10/30 09:17:47;;;;;;;;;;;;;;;;;;5135572;27;20331;-67
2021/10/30 09:20:15;;;;;;;;;;;;;;;;;;5135794;27;20392;-67
2021/10/30 09:22:41;;;;;;;;;;;;;;;;;;5135497;27;19923;-67
2021/10/30 09:25:07;;;;;;;;;;;;;;;;;;5136165;27;19984;-67
2021/10/30 09:27:34;;;;;;;;;;;;;;;;;;5135390;27;20379;-66
2021/10/30 09:30:00;;;;;;;;;;;;;;;;;;5135830;27;19930;-67
2021/10/30 09:32:26;;;;;;;;;;;;;;;;;;5135649;27;19931;-67
2021/10/30 09:34:52;;;;;;;;;;;;;;;;;;5135761;27;20389;-67
2021/10/30 09:37:19;;;;;;;;;;;;;;;;;;5135473;27;19923;-67
2021/10/30 09:39:45;;;;;;;;;;;;;;;;;;5135516;27;19928;-67
2021/10/30 09:42:11;;;;;;;;;;;;;;;;;;5135520;27;19923;-67
2021/10/30 09:44:38;;;;;;;;;;;;;;;;;;5135636;27;19924;-67
2021/10/30 09:47:04;;;;;;;;;;;;;;;;;;5135588;27;19924;-67
2021/10/30 09:49:30;;;;;;;;;;;;;;;;;;5135232;27;19931;-67
2021/10/30 09:51:57;;;;;;;;;;;;;;;;;;5135169;27;19962;-67
2021/10/30 09:54:23;;;;;;;;;;;;;;;;;;5135727;27;19923;-67
2021/10/30 09:56:50;;;;;;;;;;;;;;;;;;5135386;27;19945;-67
2021/10/30 09:59:16;;;;;;;;;;;;;;;;;;5135563;27;19928;-67
2021/10/30 10:01:42;;;;;;;;;;;;;;;;;;5135041;27;19924;-67
2021/10/30 10:04:08;;;;;;;;;;;;;;;;;;5135374;27;19930;-66
2021/10/30 10:06:35;;;;;;;;;;;;;;;;;;5135044;27;20271;-67
2021/10/30 10:09:02;;;;;;;;;;;;;;;;;;5134842;27;19924;-67
2021/10/30 10:11:28;;;;;;;;;;;;;;;;;;5134980;27;19927;-67
2021/10/30 10:13:55;;;;;;;;;;;;;;;;;;5134550;27;19930;-67
2021/10/30 10:16:21;;;;;;;;;;;;;;;;;;5134831;27;20036;-67
2021/10/30 10:18:48;;;;;;;;;;;;;;;;;;5134726;27;19923;-67
2021/10/30 10:21:14;;;;;;;;;;;;;;;;;;5134583;27;19924;-67
2021/10/30 10:23:40;;;;;;;;;;;;;;;;;;5134547;27;19923;-67
2021/10/30 10:26:06;;;;;;;;;;;;;;;;;;5134801;27;19927;-67
2021/10/30 10:28:34;;;;;;;;;;;;;;;;;;5134265;27;19931;-67
2021/10/30 10:31:01;;;;;;;;;;;;;;;;;;5134544;27;20412;-68
2021/10/30 10:33:27;;;;;;;;;;;;;;;;;;5134117;27;20396;-68
2021/10/30 10:35:53;;;;;;;;;;;;;;;;;;5134406;27;19927;-68
2021/10/30 10:38:20;;;;;;;;;;;;;;;;;;5134639;27;19923;-68
2021/10/30 10:40:46;;;;;;;;;;;;;;;;;;5134062;27;20390;-69
2021/10/30 10:43:12;;;;;;;;;;;;;;;;;;5134401;27;19930;-68
2021/10/30 10:45:39;;;;;;;;;;;;;;;;;;5134284;27;19976;-68
2021/10/30 10:48:05;;;;;;;;;;;;;;;;;;5134189;27;19931;-68
2021/10/30 10:50:33;;;;;;;;;;;;;;;;;;5134169;27;19930;-68
2021/10/30 10:53:00;;;;;;;;;;;;;;;;;;5133966;27;19931;-67
2021/10/30 10:55:26;;;;;;;;;;;;;;;;;;5133755;27;20017;-70
2021/10/30 10:57:52;;;;;;;;;;;;;;;;;;5134275;27;19927;-68
2021/10/30 11:00:19;;;;;;;;;;;;;;;;;;5133839;27;20381;-69
2021/10/30 11:02:45;;;;;;;;;;;;;;;;;;5133660;27;19928;-68
2021/10/30 11:05:11;;;;;;;;;;;;;;;;;;5134101;27;19923;-69
2021/10/30 11:07:38;;;;;;;;;;;;;;;;;;5133915;27;19972;-69
2021/10/30 11:10:04;;;;;;;;;;;;;;;;;;5133835;27;19931;-69
2021/10/30 11:12:31;;;;;;;;;;;;;;;;;;5133645;27;19930;-69
2021/10/30 11:14:58;;;;;;;;;;;;;;;;;;5133573;27;19923;-69
2021/10/30 11:17:24;;;;;;;;;;;;;;;;;;5133649;27;19923;-69
2021/10/30 11:19:51;;;;;;;;;;;;;;;;;;5133648;27;20014;-69
2021/10/30 11:22:20;;;;;;;;;;;;;;;;;;5133443;27;20014;-69
2021/10/30 11:24:47;;;;;;;;;;;;;;;;;;5132589;27;20381;-69
2021/10/30 11:27:13;;;;;;;;;;;;;;;;;;5133598;27;19974;-69
2021/10/30 11:29:39;;;;;;;;;;;;;;;;;;5133483;27;19931;-69
2021/10/30 11:32:05;;;;;;;;;;;;;;;;;;5133765;27;19946;-69
2021/10/30 11:34:32;;;;;;;;;;;;;;;;;;5133442;27;20047;-69
2021/10/30 11:36:58;;;;;;;;;;;;;;;;;;5133342;27;19924;-70
2021/10/30 11:39:24;;;;;;;;;;;;;;;;;;5133379;27;20010;-69
2021/10/30 11:41:51;;;;;;;;;;;;;;;;;;5133540;28;19923;-69
2021/10/30 11:44:17;;;;;;;;;;;;;;;;;;5133175;28;19927;-69
2021/10/30 11:46:43;;;;;;;;;;;;;;;;;;5133022;28;19923;-69
2021/10/30 11:49:10;;;;;;;;;;;;;;;;;;5133617;28;19946;-69
2021/10/30 11:51:36;;;;;;;;;;;;;;;;;;5133143;27;19931;-69
2021/10/30 11:54:02;;;;;;;;;;;;;;;;;;5133333;28;19924;-69
2021/10/30 11:56:29;;;;;;;;;;;;;;;;;;5133262;28;19924;-69
2021/10/30 11:58:56;;;;;;;;;;;;;;;;;;5133501;28;19946;-69
2021/10/30 12:01:22;;;;;;;;;;;;;;;;;;5133369;28;19924;-69
2021/10/30 12:03:48;;;;;;;;;;;;;;;;;;5133251;28;19930;-69
2021/10/30 12:06:15;;;;;;;;;;;;;;;;;;5133061;28;20404;-69
2021/10/30 12:08:41;;;;;;;;;;;;;;;;;;5132878;27;19930;-69
2021/10/30 12:11:08;;;;;;;;;;;;;;;;;;5133611;28;19927;-69
2021/10/30 12:13:34;;;;;;;;;;;;;;;;;;5133070;28;19959;-69
2021/10/30 12:16:00;;;;;;;;;;;;;;;;;;5133086;28;19924;-69
2021/10/30 12:18:26;;;;;;;;;;;;;;;;;;5132777;28;19924;-69
2021/10/30 12:20:53;;;;;;;;;;;;;;;;;;5132939;27;19927;-69
2021/10/30 12:23:19;;;;;;;;;;;;;;;;;;5133019;28;19924;-69
2021/10/30 12:25:46;;;;;;;;;;;;;;;;;;5132763;28;19977;-69
2021/10/30 12:28:12;;;;;;;;;;;;;;;;;;5133155;28;19923;-69
2021/10/30 12:30:38;;;;;;;;;;;;;;;;;;5132813;28;20382;-69
2021/10/30 12:33:04;;;;;;;;;;;;;;;;;;5132810;28;19923;-69
2021/10/30 12:35:31;;;;;;;;;;;;;;;;;;5132892;27;19947;-69
2021/10/30 12:37:57;;;;;;;;;;;;;;;;;;5136849;27;19930;-69
2021/10/30 12:40:23;;;;;;;;;;;;;;;;;;5137033;27;19931;-69
2021/10/30 12:42:50;;;;;;;;;;;;;;;;;;5136616;27;19924;-69
2021/10/30 12:45:16;;;;;;;;;;;;;;;;;;5136507;27;19931;-68
2021/10/30 12:47:42;;;;;;;;;;;;;;;;;;5136685;27;19923;-68
2021/10/30 12:50:09;;;;;;;;;;;;;;;;;;5136601;27;19927;-68
2021/10/30 12:52:35;;;;;;;;;;;;;;;;;;5136177;27;19924;-68
2021/10/30 12:55:01;;;;;;;;;;;;;;;;;;5136679;27;19931;-69
2021/10/30 12:57:28;;;;;;;;;;;;;;;;;;5136389;27;20180;-66
2021/10/30 12:59:54;;;;;;;;;;;;;;;;;;5136664;27;19980;-66
2021/10/30 13:02:21;;;;;;;;;;;;;;;;;;5136345;27;20408;-68
2021/10/30 13:04:47;;;;;;;;;;;;;;;;;;5136357;27;19944;-67
2021/10/30 13:07:13;;;;;;;;;;;;;;;;;;5136397;27;20305;-67
2021/10/30 13:09:40;;;;;;;;;;;;;;;;;;5135865;27;19925;-66
2021/10/30 13:12:06;;;;;;;;;;;;;;;;;;5136355;27;20289;-67
2021/10/30 13:14:34;;;;;;;;;;;;;;;;;;5135773;27;19930;-66
2021/10/30 13:17:00;;;;;;;;;;;;;;;;;;5136036;27;20011;-68
2021/10/30 13:19:27;;;;;;;;;;;;;;;;;;5135830;27;19931;-67
2021/10/30 13:21:53;;;;;;;;;;;;;;;;;;5135648;27;20510;-67
2021/10/30 13:24:19;;;;;;;;;;;;;;;;;;5134875;27;20331;-67
2021/10/30 13:26:46;;;;;;;;;;;;;;;;;;5134348;27;19947;-67
2021/10/30 13:29:12;;;;;;;;;;;;;;;;;;5136134;27;19923;-67
2021/10/30 13:31:38;;;;;;;;;;;;;;;;;;5135398;27;19935;-67
2021/10/30 13:34:05;;;;;;;;;;;;;;;;;;5135835;27;19923;-67
2021/10/30 13:36:31;;;;;;;;;;;;;;;;;;5135330;27;20377;-67
2021/10/30 13:38:58;;;;;;;;;;;;;;;;;;5135834;27;19930;-67
2021/10/30 13:41:26;;;;;;;;;;;;;;;;;;5135934;27;20491;-67
2021/10/30 13:43:52;;;;;;;;;;;;;;;;;;5135744;27;19927;-66
2021/10/30 13:46:19;;;;;;;;;;;;;;;;;;5135445;27;20432;-67
2021/10/30 13:48:46;;;;;;;;;;;;;;;;;;5134739;27;19931;-66
2021/10/30 13:51:12;;;;;;;;;;;;;;;;;;5135378;27;20377;-65
2021/10/30 13:53:38;;;;;;;;;;;;;;;;;;5135339;27;19935;-66
2021/10/30 13:56:04;;;;;;;;;;;;;;;;;;5135270;27;20410;-66
2021/10/30 13:58:31;;;;;;;;;;;;;;;;;;5135032;27;19930;-66
2021/10/30 14:00:57;;;;;;;;;;;;;;;;;;5135499;27;19931;-66
2021/10/30 14:03:23;;;;;;;;;;;;;;;;;;5135174;27;20370;-65
2021/10/30 14:05:50;;;;;;;;;;;;;;;;;;5135097;27;19927;-67
2021/10/30 14:08:16;;;;;;;;;;;;;;;;;;5135360;27;19923;-69
2021/10/30 14:10:42;;;;;;;;;;;;;;;;;;5134686;27;20386;-69
2021/10/30 14:13:08;;;;;;;;;;;;;;;;;;5134908;27;19927;-67
2021/10/30 14:15:35;;;;;;;;;;;;;;;;;;5134900;27;19924;-68
2021/10/30 14:18:01;;;;;;;;;;;;;;;;;;5134817;27;19924;-67
2021/10/30 14:20:27;;;;;;;;;;;;;;;;;;5134671;27;19931;-69
2021/10/30 14:22:54;;;;;;;;;;;;;;;;;;5134699;27;20297;-71
2021/10/30 14:25:20;;;;;;;;;;;;;;;;;;5134717;27;19929;-70
2021/10/30 14:27:46;;;;;;;;;;;;;;;;;;5134740;27;19934;-69
2021/10/30 14:30:13;;;;;;;;;;;;;;;;;;5134601;27;20428;-69
2021/10/30 14:32:39;;;;;;;;;;;;;;;;;;5134474;27;19928;-68
2021/10/30 14:35:06;;;;;;;;;;;;;;;;;;5134726;27;19946;-67
2021/10/30 14:37:32;;;;;;;;;;;;;;;;;;5134155;27;19924;-67
2021/10/30 14:39:58;;;;;;;;;;;;;;;;;;5134388;27;19927;-68
2021/10/30 14:42:25;;;;;;;;;;;;;;;;;;5134686;27;19930;-67
2021/10/30 14:44:51;;;;;;;;;;;;;;;;;;5134257;27;20384;-66
2021/10/30 14:47:17;;;;;;;;;;;;;;;;;;5134643;27;19923;-66
2021/10/30 14:49:44;;;;;;;;;;;;;;;;;;5134247;27;19925;-67
2021/10/30 14:52:10;;;;;;;;;;;;;;;;;;5134282;27;19923;-67
2021/10/30 14:54:36;;;;;;;;;;;;;;;;;;5134293;27;19923;-67
2021/10/30 14:57:03;;;;;;;;;;;;;;;;;;5134492;27;19923;-67
2021/10/30 14:59:29;;;;;;;;;;;;;;;;;;5133158;27;19927;-69
2021/10/30 15:01:55;;;;;;;;;;;;;;;;;;5133879;27;20290;-67
2021/10/30 15:04:22;;;;;;;;;;;;;;;;;;5133978;27;19931;-67
2021/10/30 15:06:48;;;;;;;;;;;;;;;;;;5133899;27;19923;-69
2021/10/30 15:09:14;;;;;;;;;;;;;;;;;;5134186;27;20382;-70
2021/10/30 15:11:41;;;;;;;;;;;;;;;;;;5133819;27;19924;-67
2021/10/30 15:14:07;;;;;;;;;;;;;;;;;;5134107;27;19923;-72
2021/10/30 15:16:33;;;;;;;;;;;;;;;;;;5133606;27;20408;-66
2021/10/30 15:19:00;;;;;;;;;;;;;;;;;;5133676;27;19934;-65
2021/10/30 15:21:26;;;;;;;;;;;;;;;;;;5133437;27;19931;-71
2021/10/30 15:23:52;;;;;;;;;;;;;;;;;;5133687;27;19923;-71
2021/10/30 15:26:19;;;;;;;;;;;;;;;;;;5133926;27;19923;-69
2021/10/30 15:28:45;;;;;;;;;;;;;;;;;;5133313;27;20687;-66
2021/10/30 15:31:13;;;;;;;;;;;;;;;;;;5133487;27;19930;-67
2021/10/30 15:33:40;;;;;;;;;;;;;;;;;;5133213;27;19927;-69
2021/10/30 15:36:09;;;;;;;;;;;;;;;;;;5133513;27;20328;-67
2021/10/30 15:38:35;;;;;;;;;;;;;;;;;;5133417;27;19923;-65
2021/10/30 15:41:02;;;;;;;;;;;;;;;;;;5133413;27;19923;-69
2021/10/30 15:43:28;;;;;;;;;;;;;;;;;;5133547;28;19923;-68
2021/10/30 15:45:54;;;;;;;;;;;;;;;;;;5133548;27;19924;-67
2021/10/30 15:48:20;;;;;;;;;;;;;;;;;;5133247;28;19930;-66
2021/10/30 15:50:47;;;;;;;;;;;;;;;;;;5133423;28;19923;-65
2021/10/30 15:53:14;;;;;;;;;;;;;;;;;;5133277;28;19927;-66
2021/10/30 15:55:40;;;;;;;;;;;;;;;;;;5132995;28;20074;-68
2021/10/30 15:58:07;;;;;;;;;;;;;;;;;;5133473;28;19923;-66
2021/10/30 16:00:33;;;;;;;;;;;;;;;;;;5133312;28;20013;-67
2021/10/30 16:02:59;;;;;;;;;;;;;;;;;;5133520;28;19923;-70
2021/10/30 16:05:26;;;;;;;;;;;;;;;;;;5132923;28;19923;-68
2021/10/30 16:07:52;;;;;;;;;;;;;;;;;;5133521;28;19924;-67
2021/10/30 16:10:18;;;;;;;;;;;;;;;;;;5133254;27;19923;-70
2021/10/30 16:12:44;;;;;;;;;;;;;;;;;;5137098;27;19924;-67
2021/10/30 16:15:11;;;;;;;;;;;;;;;;;;5137507;27;19923;-67
2021/10/30 16:17:37;;;;;;;;;;;;;;;;;;5136813;27;19924;-67
2021/10/30 16:20:03;;;;;;;;;;;;;;;;;;5137464;27;19930;-67
2021/10/30 16:22:30;;;;;;;;;;;;;;;;;;5136619;27;20393;-66
2021/10/30 16:24:59;;;;;;;;;;;;;;;;;;5135436;27;19924;-66
2021/10/30 16:27:25;;;;;;;;;;;;;;;;;;5137046;27;19930;-67
2021/10/30 16:29:52;;;;;;;;;;;;;;;;;;5136780;27;20378;-66
2021/10/30 16:32:18;;;;;;;;;;;;;;;;;;5136831;27;20465;-66
2021/10/30 16:34:44;;;;;;;;;;;;;;;;;;5136690;27;19923;-66
2021/10/30 16:37:11;;;;;;;;;;;;;;;;;;5136736;27;20445;-66
2021/10/30 16:39:39;;;;;;;;;;;;;;;;;;5136543;27;19923;-66